Time;durP1;ratioP1;P1;durP2;ratioP2;P2;SDS_P1;SDS_P2;PMS_P1;PMS_P2;Temp;Humidity;BMP_temperature;BMP_pressure;BME280_temperature;BME280_humidity;BME280_pressure;Samples;Min_cycle;Max_cycle;Signal;HPM_P1;HPM_P2
2022/07/08 00:02:11;;;;;;;7.90;1.60;;;;;;;16.51;61.78;103073.22;6306371;22;20060;-77
2022/07/08 00:04:38;;;;;;;8.98;1.70;;;;;;;16.44;62.04;103077.31;6278815;22;20434;-78
2022/07/08 00:07:03;;;;;;;10.38;1.92;;;;;;;16.44;62.46;103076.38;6254773;22;20034;-77
2022/07/08 00:09:29;;;;;;;10.43;1.77;;;;;;;16.49;62.33;103080.94;6306284;22;20003;-78
2022/07/08 00:11:56;;;;;;;10.93;1.70;;;;;;;16.39;62.94;103086.63;6304973;22;20003;-78
2022/07/08 00:14:23;;;;;;;9.30;1.75;;;;;;;16.33;63.74;103076.00;6307404;22;20003;-77
2022/07/08 00:16:50;;;;;;;7.10;1.65;;;;;;;16.31;64.39;103075.00;6307141;22;20010;-78
2022/07/08 00:19:19;;;;;;;7.50;1.90;;;;;;;16.30;65.19;103079.31;6305629;22;20026;-77
2022/07/08 00:21:46;;;;;;;9.88;1.70;;;;;;;16.28;65.80;103080.09;6253571;22;20018;-77
2022/07/08 00:24:12;;;;;;;8.77;1.60;;;;;;;16.23;66.24;103079.91;6305666;22;20003;-77
2022/07/08 00:26:39;;;;;;;8.85;1.70;;;;;;;16.19;66.50;103077.13;6304261;22;20013;-76
2022/07/08 00:29:05;;;;;;;9.80;2.20;;;;;;;16.18;66.92;103071.06;6277165;22;20015;-78
2022/07/08 00:31:30;;;;;;;5.45;1.63;;;;;;;16.15;67.05;103073.53;6305476;22;20330;-78
2022/07/08 00:33:56;;;;;;;8.68;1.75;;;;;;;16.11;67.46;103069.03;6304285;22;20380;-78
2022/07/08 00:36:24;;;;;;;9.98;2.00;;;;;;;16.09;67.62;103076.78;6277798;22;20015;-77
2022/07/08 00:38:50;;;;;;;8.90;2.05;;;;;;;16.12;67.56;103076.00;6306780;22;20021;-78
2022/07/08 00:41:15;;;;;;;9.23;1.85;;;;;;;16.05;67.96;103072.28;6305213;22;20430;-78
2022/07/08 00:43:43;;;;;;;11.65;2.25;;;;;;;16.03;68.71;103084.31;6303921;22;20007;-77
2022/07/08 00:46:09;;;;;;;12.10;2.05;;;;;;;16.01;68.47;103085.06;6307305;22;20046;-78
2022/07/08 00:48:37;;;;;;;10.85;2.15;;;;;;;15.94;68.58;103078.72;6305055;22;20007;-78
2022/07/08 00:51:05;;;;;;;10.98;2.03;;;;;;;15.90;68.57;103083.75;6276356;22;19999;-77
2022/07/08 00:53:33;;;;;;;9.37;2.47;;;;;;;15.97;69.11;103084.06;6279200;22;20014;-77
2022/07/08 00:55:59;;;;;;;11.82;2.30;;;;;;;15.84;69.13;103088.69;6305009;22;20244;-78
2022/07/08 00:58:26;;;;;;;8.85;2.20;;;;;;;15.84;69.32;103093.88;6304738;22;20006;-79
2022/07/08 01:00:53;;;;;;;8.93;2.33;;;;;;;15.72;69.90;103076.09;6304942;22;20079;-78
2022/07/08 01:03:18;;;;;;;7.65;2.00;;;;;;;15.71;69.58;103079.47;6305186;22;20474;-78
2022/07/08 01:05:44;;;;;;;11.43;2.45;;;;;;;15.78;69.62;103084.13;6302400;22;20086;-78
2022/07/08 01:08:10;;;;;;;7.70;2.25;;;;;;;15.66;69.75;103089.69;6224001;22;20007;-78
2022/07/08 01:10:36;;;;;;;10.60;2.45;;;;;;;15.68;69.72;103089.72;6249311;22;20007;-78
2022/07/08 01:13:02;;;;;;;8.00;2.00;;;;;;;15.72;69.80;103086.47;6251112;22;20536;-78
2022/07/08 01:15:28;;;;;;;11.10;2.55;;;;;;;15.66;69.94;103092.28;6304768;22;20007;-78
2022/07/08 01:17:53;;;;;;;9.15;2.50;;;;;;;15.61;70.00;103093.75;6305896;22;20333;-78
2022/07/08 01:20:19;;;;;;;9.75;2.00;;;;;;;15.59;70.12;103091.88;6278187;22;20030;-78
2022/07/08 01:22:44;;;;;;;9.27;2.15;;;;;;;15.54;70.40;103091.72;6303756;22;20034;-77
2022/07/08 01:25:10;;;;;;;10.52;1.90;;;;;;;15.49;69.93;103098.41;6252796;22;20010;-78
2022/07/08 01:27:37;;;;;;;11.10;2.20;;;;;;;15.47;69.82;103090.56;6302701;22;20084;-78
2022/07/08 01:30:04;;;;;;;11.10;1.90;;;;;;;15.40;70.90;103088.50;6303491;22;20003;-78
2022/07/08 01:32:34;;;;;;;8.98;2.53;;;;;;;15.41;70.54;103094.56;6306845;22;20025;-78
2022/07/08 01:35:00;;;;;;;6.55;2.40;;;;;;;15.36;70.59;103083.13;6250412;22;20026;-78
2022/07/08 01:37:26;;;;;;;11.98;2.33;;;;;;;15.44;70.67;103089.53;6278721;22;20458;-78
2022/07/08 01:39:52;;;;;;;9.10;1.65;;;;;;;15.37;70.78;103092.69;6303914;22;20003;-78
2022/07/08 01:42:17;;;;;;;11.32;2.38;;;;;;;15.33;71.11;103091.66;6276936;22;20003;-78
2022/07/08 01:44:43;;;;;;;9.80;2.00;;;;;;;15.37;70.69;103078.00;6304647;22;20089;-78
2022/07/08 01:47:08;;;;;;;9.50;2.42;;;;;;;15.31;71.38;103090.69;6304123;22;20315;-78
2022/07/08 01:49:34;;;;;;;11.25;2.28;;;;;;;15.33;71.29;103080.41;6251727;22;20063;-78
2022/07/08 01:52:00;;;;;;;8.35;2.10;;;;;;;15.27;71.86;103087.06;6302717;22;20431;-78
2022/07/08 01:54:25;;;;;;;10.88;2.17;;;;;;;15.26;71.49;103080.13;6304648;22;20042;-77
2022/07/08 01:57:13;;;;;;;9.30;2.28;;;;;;;15.26;71.43;103074.06;6250463;22;20007;-78
2022/07/08 01:59:36;;;;;;;9.25;1.70;;;;;;;15.20;71.79;103076.38;6305094;22;20342;-78
2022/07/08 02:02:02;;;;;;;7.40;2.10;;;;;;;15.20;71.49;103074.69;6276062;22;20023;-76
2022/07/08 02:04:27;;;;;;;10.95;2.30;;;;;;;15.22;71.26;103072.13;6276602;22;20433;-79
2022/07/08 02:06:53;;;;;;;13.15;2.75;;;;;;;15.19;71.98;103080.69;6304654;22;20055;-78
2022/07/08 02:09:18;;;;;;;7.75;2.20;;;;;;;15.22;71.78;103079.91;6278103;22;20019;-79
2022/07/08 02:14:27;;;;;;;11.27;2.20;;;;;;;15.22;71.70;103077.31;6281283;22;20102;-79
2022/07/08 02:16:53;;;;;;;11.75;2.22;;;;;;;15.25;71.67;103083.53;6227942;22;20034;-79
2022/07/08 02:19:18;;;;;;;9.63;2.28;;;;;;;15.18;71.86;103085.81;6304152;22;20015;-79
2022/07/08 02:21:44;;;;;;;9.20;2.20;;;;;;;15.15;71.87;103086.53;6278726;22;20007;-79
2022/07/08 02:24:10;;;;;;;10.52;2.13;;;;;;;15.13;72.20;103092.47;6252013;22;20688;-79
2022/07/08 02:26:35;;;;;;;11.65;2.30;;;;;;;15.11;72.28;103086.34;6276461;22;20022;-79
2022/07/08 02:29:00;;;;;;;8.77;2.35;;;;;;;15.03;72.42;103081.69;6277223;22;20051;-78
2022/07/08 02:31:26;;;;;;;10.60;2.40;;;;;;;15.11;72.29;103084.66;6277519;22;20003;-79
2022/07/08 02:33:51;;;;;;;9.60;2.50;;;;;;;15.15;72.36;103090.84;6278079;22;20018;-79
2022/07/08 02:36:17;;;;;;;9.25;2.13;;;;;;;15.11;72.45;103094.13;6306622;22;20090;-79
2022/07/08 02:38:42;;;;;;;9.55;2.80;;;;;;;15.10;72.59;103095.81;6306143;22;20007;-79
2022/07/08 02:41:07;;;;;;;6.80;1.90;;;;;;;15.16;72.58;103092.59;6279212;22;20007;-79
2022/07/08 02:43:33;;;;;;;11.05;2.85;;;;;;;15.14;72.35;103094.25;6307019;22;20003;-79
2022/07/08 02:45:58;;;;;;;9.20;2.38;;;;;;;15.08;72.86;103092.28;6306214;22;20434;-78
2022/07/08 02:48:24;;;;;;;11.13;2.08;;;;;;;15.08;73.19;103091.38;6305406;22;20627;-78
2022/07/08 02:50:49;;;;;;;9.45;2.30;;;;;;;15.14;73.01;103094.25;6276672;22;20018;-78
2022/07/08 02:53:15;;;;;;;7.40;1.88;;;;;;;15.14;72.84;103089.06;6306517;22;20011;-78
2022/07/08 02:55:40;;;;;;;10.07;2.58;;;;;;;15.10;72.84;103084.56;6305868;22;20007;-79
2022/07/08 02:58:06;;;;;;;7.95;1.90;;;;;;;15.06;73.10;103093.91;6252094;22;20334;-79
2022/07/08 03:00:31;;;;;;;10.07;2.13;;;;;;;15.06;73.28;103087.84;6307761;22;20011;-79
2022/07/08 03:02:56;;;;;;;9.73;2.10;;;;;;;15.08;73.06;103092.28;6305809;22;20007;-79
2022/07/08 03:05:22;;;;;;;7.78;1.80;;;;;;;15.06;73.28;103090.44;6307155;22;20007;-78
2022/07/08 03:07:47;;;;;;;12.30;2.25;;;;;;;15.02;73.17;103094.59;6279153;22;20076;-79
2022/07/08 03:10:12;;;;;;;9.25;2.35;;;;;;;15.03;73.49;103091.16;6278695;22;20007;-79
2022/07/08 03:12:38;;;;;;;11.70;2.60;;;;;;;15.01;73.32;103093.69;6307304;22;20007;-78
2022/07/08 03:15:04;;;;;;;6.35;2.10;;;;;;;15.02;73.56;103095.47;6278053;22;20038;-78
2022/07/08 03:17:29;;;;;;;7.63;2.15;;;;;;;14.98;73.72;103096.13;6279999;22;20065;-79
2022/07/08 03:19:54;;;;;;;8.30;2.30;;;;;;;15.01;73.89;103096.28;6253509;22;20007;-76
2022/07/08 03:22:20;;;;;;;8.43;2.05;;;;;;;14.99;73.84;103097.06;6307303;22;20042;-77
2022/07/08 03:24:45;;;;;;;10.85;2.30;;;;;;;15.02;74.27;103094.59;6306798;22;20100;-77
2022/07/08 03:27:10;;;;;;;11.20;2.60;;;;;;;14.97;73.62;103090.88;6279023;22;20355;-77
2022/07/08 03:29:36;;;;;;;11.05;2.60;;;;;;;14.93;73.89;103091.59;6303733;22;20030;-77
2022/07/08 03:32:01;;;;;;;8.18;2.65;;;;;;;14.88;73.64;103093.97;6251486;22;20017;-77
2022/07/08 03:34:27;;;;;;;7.53;1.83;;;;;;;14.89;73.70;103089.66;6276813;22;20007;-78
2022/07/08 03:36:52;;;;;;;9.98;2.58;;;;;;;14.87;73.37;103096.50;6278929;22;20007;-77
2022/07/08 03:39:17;;;;;;;11.35;2.15;;;;;;;14.82;73.66;103101.44;6306535;22;20280;-77
2022/07/08 03:41:43;;;;;;;6.80;2.17;;;;;;;14.78;73.86;103091.75;6278971;22;20004;-78
2022/07/08 03:44:08;;;;;;;6.00;2.05;;;;;;;14.72;74.08;103097.53;6253645;22;20044;-78
2022/07/08 03:46:34;;;;;;;8.90;2.33;;;;;;;14.71;73.92;103103.53;6306022;22;20088;-78
2022/07/08 03:48:59;;;;;;;9.45;2.33;;;;;;;14.66;73.57;103084.31;6276808;22;20007;-78
2022/07/08 03:51:24;;;;;;;7.10;2.08;;;;;;;14.67;74.03;103096.44;6307679;22;20014;-78
2022/07/08 03:53:50;;;;;;;7.53;1.80;;;;;;;14.68;73.84;103106.00;6252419;22;20003;-77
2022/07/08 03:56:15;;;;;;;12.65;2.28;;;;;;;14.62;74.00;103105.72;6279027;22;20065;-78
2022/07/08 03:58:49;;;;;;;9.75;2.15;;;;;;;14.62;74.03;103103.13;6308857;22;20011;-78
2022/07/08 04:01:15;;;;;;;7.55;1.83;;;;;;;14.64;73.79;103096.31;6278425;22;20040;-79
2022/07/08 04:03:40;;;;;;;11.13;2.00;;;;;;;14.61;74.03;103095.25;6279674;22;20426;-78
2022/07/08 04:06:05;;;;;;;7.25;2.05;;;;;;;14.64;73.62;103098.88;6277331;22;20003;-78
2022/07/08 04:08:31;;;;;;;10.20;2.72;;;;;;;14.65;73.62;103097.19;6305763;22;20077;-78
2022/07/08 04:10:56;;;;;;;8.23;2.00;;;;;;;14.61;73.98;103098.72;6279094;22;20011;-78
2022/07/08 04:13:23;;;;;;;9.43;2.05;;;;;;;14.64;73.57;103101.47;6304822;22;20007;-77
2022/07/08 04:15:50;;;;;;;8.13;2.20;;;;;;;14.62;73.78;103107.38;6305454;22;20003;-79
2022/07/08 04:18:15;;;;;;;9.80;2.35;;;;;;;14.56;74.27;103110.59;6304971;22;20067;-78
2022/07/08 04:20:41;;;;;;;9.80;2.10;;;;;;;14.56;74.20;103107.09;6279078;22;20049;-78
2022/07/08 04:23:06;;;;;;;10.65;2.28;;;;;;;14.59;73.85;103102.97;6305561;22;20052;-78
2022/07/08 04:25:31;;;;;;;9.38;2.22;;;;;;;14.51;74.41;103100.84;6306749;22;20008;-78
2022/07/08 04:27:57;;;;;;;11.88;2.10;;;;;;;14.58;73.99;103105.50;6305730;22;20011;-79
2022/07/08 04:30:22;;;;;;;9.93;2.17;;;;;;;14.54;74.00;103107.03;6279463;22;20425;-78
2022/07/08 04:32:48;;;;;;;10.27;2.25;;;;;;;14.57;73.65;103104.59;6279051;22;20003;-78
2022/07/08 04:35:16;;;;;;;8.70;2.25;;;;;;;14.56;74.35;103115.78;6305364;22;20010;-79
2022/07/08 04:37:41;;;;;;;8.20;2.50;;;;;;;14.63;73.64;103117.84;6229292;22;20100;-78
2022/07/08 04:40:08;;;;;;;8.77;2.40;;;;;;;14.65;73.62;103107.53;6305497;22;20003;-78
2022/07/08 04:42:33;;;;;;;6.03;2.20;;;;;;;14.62;73.54;103109.97;6305125;22;20007;-79
2022/07/08 04:44:59;;;;;;;9.85;2.28;;;;;;;14.62;73.93;103120.34;6279182;22;20018;-79
2022/07/08 04:47:24;;;;;;;6.40;1.90;;;;;;;14.63;74.21;103125.59;6279326;22;20007;-79
2022/07/08 04:49:49;;;;;;;7.55;1.90;;;;;;;14.67;73.77;103129.22;6306578;22;20492;-78
2022/07/08 04:52:15;;;;;;;9.20;2.08;;;;;;;14.69;73.95;103131.06;6306246;22;20046;-79
2022/07/08 04:54:40;;;;;;;10.55;2.53;;;;;;;14.74;73.78;103134.78;6252520;22;20019;-79
2022/07/08 04:57:06;;;;;;;8.43;2.22;;;;;;;14.64;74.32;103129.06;6272113;22;20003;-77
2022/07/08 04:59:31;;;;;;;10.82;2.42;;;;;;;14.74;73.89;103144.22;6303558;22;20022;-78
2022/07/08 05:01:57;;;;;;;8.80;2.05;;;;;;;14.72;73.94;103140.69;6278866;22;20046;-78
2022/07/08 05:04:22;;;;;;;12.77;2.40;;;;;;;14.76;73.99;103145.19;6306013;22;20442;-78
2022/07/08 05:06:48;;;;;;;8.02;2.17;;;;;;;14.75;74.07;103156.38;6305927;22;20482;-79
2022/07/08 05:09:13;;;;;;;12.45;2.20;;;;;;;14.82;74.10;103153.25;6304987;22;20065;-77
2022/07/08 05:11:38;;;;;;;8.63;2.10;;;;;;;14.87;74.09;103154.38;6306654;22;20082;-78
2022/07/08 05:14:05;;;;;;;12.40;2.33;;;;;;;14.95;73.47;103162.47;6304846;22;20306;-78
2022/07/08 05:16:31;;;;;;;11.50;2.10;;;;;;;14.92;73.37;103150.25;6307342;22;20069;-78
2022/07/08 05:18:56;;;;;;;9.82;1.90;;;;;;;15.02;73.13;103162.84;6304741;22;19995;-78
2022/07/08 05:21:21;;;;;;;11.05;2.55;;;;;;;15.10;73.13;103170.06;6304112;22;20019;-78
2022/07/08 05:23:47;;;;;;;13.60;2.33;;;;;;;15.16;73.08;103173.81;6305179;22;20078;-78
2022/07/08 05:26:12;;;;;;;10.32;2.20;;;;;;;15.18;73.18;103171.31;6304262;22;20003;-79
2022/07/08 05:28:37;;;;;;;10.73;2.50;;;;;;;15.22;72.88;103165.44;6304058;22;20011;-78
2022/07/08 05:31:03;;;;;;;10.18;2.20;;;;;;;15.28;72.86;103166.59;6305589;22;20003;-78
2022/07/08 05:33:28;;;;;;;9.50;2.00;;;;;;;15.36;72.69;103176.47;6305365;22;20003;-78
2022/07/08 05:35:54;;;;;;;11.63;2.22;;;;;;;15.42;72.90;103168.97;6278033;22;20092;-79
2022/07/08 05:38:20;;;;;;;9.73;2.10;;;;;;;15.50;72.52;103173.66;6304584;22;20004;-78
2022/07/08 05:40:45;;;;;;;8.55;1.92;;;;;;;15.57;72.71;103174.81;6304036;22;20100;-77
2022/07/08 05:43:11;;;;;;;8.48;2.10;;;;;;;15.63;72.33;103182.00;6305271;22;20307;-79
2022/07/08 05:45:36;;;;;;;7.43;2.33;;;;;;;15.69;72.00;103182.28;6253417;22;20011;-78
2022/07/08 05:48:01;;;;;;;11.18;2.13;;;;;;;15.74;71.83;103179.06;6305538;22;20033;-78
2022/07/08 05:50:27;;;;;;;12.80;2.20;;;;;;;15.85;71.69;103182.13;6279234;22;20007;-79
2022/07/08 05:52:52;;;;;;;9.82;2.28;;;;;;;15.85;71.53;103170.88;6305654;22;20528;-79
2022/07/08 05:55:18;;;;;;;11.82;2.20;;;;;;;15.97;71.39;103180.06;6277191;22;20007;-79
2022/07/08 05:57:43;;;;;;;11.65;1.75;;;;;;;16.02;70.90;103181.16;6279143;22;20361;-78
2022/07/08 06:00:09;;;;;;;8.30;1.95;;;;;;;16.12;71.29;103182.41;6305952;22;20070;-78
2022/07/08 06:02:37;;;;;;;11.40;2.42;;;;;;;16.17;71.14;103182.63;6305795;22;20015;-79
2022/07/08 06:05:02;;;;;;;15.10;2.28;;;;;;;16.24;70.92;103177.72;6278514;22;20011;-79
2022/07/08 06:07:28;;;;;;;8.60;2.05;;;;;;;16.36;70.41;103190.34;6277382;22;20003;-79
2022/07/08 06:09:53;;;;;;;10.30;2.00;;;;;;;16.39;70.00;103181.81;6308254;22;20014;-79
2022/07/08 06:12:19;;;;;;;10.73;1.90;;;;;;;16.47;69.56;103183.00;6279484;22;20006;-79
2022/07/08 06:14:44;;;;;;;9.25;1.80;;;;;;;16.66;69.12;103189.81;6308610;22;20014;-78
2022/07/08 06:17:10;;;;;;;12.50;2.45;;;;;;;16.68;68.77;103193.34;6306777;22;20003;-78
2022/07/08 06:19:35;;;;;;;10.95;2.00;;;;;;;16.74;68.04;103191.03;6253615;22;20003;-77
2022/07/08 06:22:00;;;;;;;10.63;2.50;;;;;;;16.79;68.15;103199.88;6306054;22;20572;-79
2022/07/08 06:24:26;;;;;;;6.57;1.58;;;;;;;16.85;67.75;103193.22;6306495;22;20010;-79
2022/07/08 06:26:54;;;;;;;6.18;1.30;;;;;;;16.86;67.51;103191.50;6304483;22;20227;-79
2022/07/08 06:29:20;;;;;;;8.38;1.88;;;;;;;16.86;67.41;103187.19;6266191;22;20031;-77
2022/07/08 06:31:45;;;;;;;15.90;2.05;;;;;;;16.88;67.34;103182.97;6244345;23;20009;-77
2022/07/08 06:34:10;;;;;;;10.90;2.15;;;;;;;17.15;67.53;103190.91;6213517;23;20015;-78
2022/07/08 06:36:36;;;;;;;8.85;2.00;;;;;;;17.17;67.17;103193.59;6243535;22;20028;-79
2022/07/08 06:39:02;;;;;;;9.95;1.90;;;;;;;17.11;66.83;103188.16;6237849;23;20008;-76
2022/07/08 06:41:27;;;;;;;11.75;1.92;;;;;;;17.21;66.63;103194.59;6241600;22;20058;-77
2022/07/08 06:43:53;;;;;;;6.85;1.95;;;;;;;17.36;66.28;103198.66;6243335;22;20011;-78
2022/07/08 06:46:18;;;;;;;10.60;2.00;;;;;;;17.50;66.49;103188.75;6243132;23;20435;-77
2022/07/08 06:48:44;;;;;;;9.10;1.88;;;;;;;17.50;65.98;103190.47;6242296;22;20016;-78
2022/07/08 06:51:12;;;;;;;6.78;1.50;;;;;;;17.66;65.70;103200.63;6240909;23;20595;-79
2022/07/08 06:56:23;;;;;;;7.90;1.83;;;;;;;17.76;65.12;103196.63;6243124;23;20402;-79
2022/07/08 06:58:48;;;;;;;8.98;1.90;;;;;;;17.85;64.71;103197.84;6244735;22;20008;-78
2022/07/08 07:01:14;;;;;;;14.38;2.13;;;;;;;17.87;64.61;103197.91;6243948;22;21169;-78
2022/07/08 07:03:53;;;;;;;10.77;1.70;;;;;;;17.87;65.17;103193.59;6242404;22;20015;-80
2022/07/08 07:06:18;;;;;;;6.30;1.50;;;;;;;17.87;64.27;103192.69;6242580;23;20004;-78
2022/07/08 07:08:46;;;;;;;11.20;1.98;;;;;;;17.97;64.85;103194.81;6243445;22;20030;-79
2022/07/08 07:11:12;;;;;;;9.43;2.00;;;;;;;18.12;64.72;103192.72;6242871;22;20079;-77
2022/07/08 07:13:37;;;;;;;11.07;1.70;;;;;;;18.14;65.05;103200.56;6243040;22;20842;-78
2022/07/08 07:16:03;;;;;;;11.02;1.88;;;;;;;18.23;64.52;103188.75;6241272;22;20083;-77
2022/07/08 07:18:28;;;;;;;6.93;1.52;;;;;;;18.39;63.95;103195.38;6245700;22;20004;-78
2022/07/08 07:20:53;;;;;;;8.73;1.58;;;;;;;18.44;62.81;103195.50;6244872;22;20058;-79
2022/07/08 07:23:19;;;;;;;9.23;1.60;;;;;;;18.55;63.76;103195.84;6246230;22;20008;-76
2022/07/08 07:25:44;;;;;;;9.30;1.50;;;;;;;18.47;63.53;103195.59;6243078;23;20343;-79
2022/07/08 07:28:10;;;;;;;13.30;1.73;;;;;;;18.63;63.98;103199.59;6242869;23;20074;-79
2022/07/08 07:30:35;;;;;;;11.73;1.73;;;;;;;18.64;63.06;103199.63;6241393;22;20019;-78
2022/07/08 07:33:00;;;;;;;7.38;1.58;;;;;;;18.78;62.77;103181.84;6242205;23;20008;-78
2022/07/08 07:35:26;;;;;;;7.28;1.50;;;;;;;18.90;62.73;103191.78;6215341;23;20008;-76
2022/07/08 07:37:51;;;;;;;9.02;1.67;;;;;;;18.95;62.01;103195.41;6239886;22;20066;-77
2022/07/08 07:40:17;;;;;;;9.18;1.50;;;;;;;18.85;62.07;103193.34;6243512;22;20466;-79
2022/07/08 07:42:42;;;;;;;11.43;1.70;;;;;;;18.77;61.89;103205.28;6240973;22;20012;-78
2022/07/08 07:45:08;;;;;;;10.43;1.65;;;;;;;18.68;62.72;103195.44;6242386;22;20386;-79
2022/07/08 07:47:33;;;;;;;8.52;1.80;;;;;;;18.65;62.38;103197.91;6241745;23;20039;-77
2022/07/08 07:49:59;;;;;;;7.32;1.65;;;;;;;18.62;62.24;103201.28;6242394;22;20004;-79
2022/07/08 07:52:24;;;;;;;12.43;1.77;;;;;;;18.61;62.08;103203.84;6244262;22;20020;-78
2022/07/08 07:54:50;;;;;;;7.55;1.70;;;;;;;18.62;62.30;103196.09;6237737;23;20012;-77
2022/07/08 07:57:15;;;;;;;12.98;2.10;;;;;;;18.71;62.16;103195.53;6240284;23;20008;-77
2022/07/08 07:59:41;;;;;;;7.47;1.48;;;;;;;18.69;62.32;103192.91;6246322;22;20328;-79
2022/07/08 08:02:07;;;;;;;10.95;1.73;;;;;;;18.82;62.25;103198.50;6219224;23;20008;-79
2022/07/08 08:04:32;;;;;;;6.60;1.42;;;;;;;18.98;62.91;103192.88;6244807;22;20066;-78
2022/07/08 08:06:58;;;;;;;7.78;1.70;;;;;;;19.05;62.54;103197.47;6244981;22;20434;-79
2022/07/08 08:09:24;;;;;;;12.05;1.85;;;;;;;19.10;61.84;103197.59;6193501;23;20015;-79
2022/07/08 08:11:49;;;;;;;8.50;1.70;;;;;;;19.17;60.89;103196.94;6245678;22;20008;-79
2022/07/08 08:14:15;;;;;;;9.85;1.60;;;;;;;19.18;61.48;103198.72;6246246;22;20484;-78
2022/07/08 08:16:40;;;;;;;8.88;1.50;;;;;;;19.32;61.52;103191.28;6244180;23;20007;-79
2022/07/08 08:19:06;;;;;;;6.40;1.60;;;;;;;19.40;61.94;103189.78;6217635;23;20083;-78
2022/07/08 08:21:31;;;;;;;9.18;1.60;;;;;;;19.46;60.45;103197.78;6244971;22;20004;-78
2022/07/08 08:23:56;;;;;;;9.10;1.65;;;;;;;19.47;59.97;103202.16;6242993;23;20210;-78
2022/07/08 08:26:22;;;;;;;9.90;1.50;;;;;;;19.61;59.63;103206.09;6243598;23;20016;-79
2022/07/08 08:28:49;;;;;;;11.15;1.75;;;;;;;19.60;59.91;103204.31;6256320;22;20443;-76
2022/07/08 08:31:14;;;;;;;7.30;1.20;;;;;;;19.74;58.51;103208.19;6274366;22;20387;-78
2022/07/08 08:33:40;;;;;;;5.22;1.50;;;;;;;19.69;56.58;103199.34;6273067;22;20018;-78
2022/07/08 08:36:06;;;;;;;7.60;1.38;;;;;;;19.79;57.80;103208.31;6275017;22;20034;-78
2022/07/08 08:38:31;;;;;;;10.57;1.60;;;;;;;19.87;57.53;103203.28;6275484;22;20077;-78
2022/07/08 08:40:59;;;;;;;8.50;2.03;;;;;;;19.94;57.22;103211.31;6274718;22;20003;-78
2022/07/08 08:43:25;;;;;;;6.70;1.35;;;;;;;20.05;56.40;103204.66;6272519;22;20066;-78
2022/07/08 08:45:51;;;;;;;7.45;1.30;;;;;;;20.06;56.47;103208.16;6275162;22;20080;-75
2022/07/08 08:48:21;;;;;;;8.13;1.70;;;;;;;20.09;56.38;103205.63;6273507;22;20035;-77
2022/07/08 08:50:54;;;;;;;6.95;1.13;;;;;;;20.21;56.78;103195.50;6273272;22;20010;-75
2022/07/08 08:53:26;;;;;;;8.82;1.50;;;;;;;20.25;56.38;103192.09;6273209;22;20003;-77
2022/07/08 08:55:52;;;;;;;9.10;1.65;;;;;;;20.22;56.86;103197.25;6273236;22;20003;-76
2022/07/08 08:58:17;;;;;;;6.93;1.40;;;;;;;20.29;57.63;103188.72;6274259;22;20079;-74
2022/07/08 09:00:43;;;;;;;7.80;1.70;;;;;;;20.28;57.24;103191.31;6273834;22;20007;-75
2022/07/08 09:03:08;;;;;;;9.18;1.70;;;;;;;20.30;58.05;103190.50;6272203;22;20053;-76
2022/07/08 09:05:35;;;;;;;9.50;1.60;;;;;;;20.40;57.61;103180.28;6274054;22;20107;-76
2022/07/08 09:08:01;;;;;;;6.90;1.67;;;;;;;20.45;57.52;103183.88;6273025;22;20007;-76
2022/07/08 09:10:26;;;;;;;6.47;1.80;;;;;;;20.50;57.60;103174.44;6272540;22;20057;-76
2022/07/08 09:13:01;;;;;;;5.32;1.35;;;;;;;20.57;57.49;103185.09;6273034;22;20003;-76
2022/07/08 09:15:37;;;;;;;6.32;1.40;;;;;;;20.57;56.13;103186.81;6273911;22;20075;-77
2022/07/08 09:18:06;;;;;;;7.20;1.65;;;;;;;20.58;56.06;103173.78;6272930;22;20004;-77
2022/07/08 09:20:40;;;;;;;11.45;1.75;;;;;;;20.63;56.44;103179.13;6274925;22;20000;-77
2022/07/08 09:23:16;;;;;;;8.00;1.40;;;;;;;20.60;55.68;103173.81;6275518;22;20031;-76
2022/07/08 09:25:44;;;;;;;7.72;1.50;;;;;;;20.62;55.85;103185.19;6274193;22;20020;-76
2022/07/08 09:28:09;;;;;;;6.40;1.60;;;;;;;20.69;56.52;103175.75;6273923;22;20019;-76
2022/07/08 09:30:36;;;;;;;7.43;1.63;;;;;;;20.69;56.35;103176.66;6274251;22;20028;-75
2022/07/08 09:33:03;;;;;;;9.85;1.60;;;;;;;20.79;57.31;103181.22;6274535;22;20016;-76
2022/07/08 09:35:33;;;;;;;7.15;1.80;;;;;;;20.80;56.45;103176.88;6272938;22;20003;-76
2022/07/08 09:38:22;;;;;;;5.95;1.30;;;;;;;20.86;55.53;103182.25;6273652;22;19999;-76
2022/07/08 09:40:54;;;;;;;9.38;1.50;;;;;;;20.85;55.58;103175.25;6263984;22;20338;-76
2022/07/08 09:43:21;;;;;;;6.35;1.45;;;;;;;20.91;56.09;103167.53;6271271;22;20062;-75
2022/07/08 09:45:46;;;;;;;9.00;1.50;;;;;;;20.91;55.73;103177.13;6246843;22;20007;-76
2022/07/08 09:48:12;;;;;;;7.90;1.55;;;;;;;20.96;56.38;103179.00;6274188;22;20012;-76
2022/07/08 09:50:42;;;;;;;6.10;1.30;;;;;;;21.00;56.44;103179.94;6274571;22;20007;-76
2022/07/08 09:53:22;;;;;;;7.40;1.63;;;;;;;21.09;56.79;103183.63;6274514;22;20004;-74
2022/07/08 09:55:53;;;;;;;9.23;1.65;;;;;;;21.05;56.07;103179.22;6273490;22;20078;-74
2022/07/08 09:58:21;;;;;;;5.47;1.60;;;;;;;21.07;56.10;103185.34;6273888;22;20458;-76
2022/07/08 10:00:49;;;;;;;5.43;1.40;;;;;;;21.12;56.20;103185.44;6274263;22;20008;-76
2022/07/08 10:03:15;;;;;;;9.40;1.63;;;;;;;21.02;55.89;103178.25;6273075;22;20011;-76
2022/07/08 10:05:41;;;;;;;6.47;1.30;;;;;;;21.14;57.13;103186.34;6274516;22;20006;-76
2022/07/08 10:08:08;;;;;;;10.10;1.35;;;;;;;21.15;56.94;103180.25;6275280;22;20012;-76
2022/07/08 10:10:35;;;;;;;7.60;1.88;;;;;;;21.17;55.91;103178.53;6279142;22;20003;-76
2022/07/08 10:13:02;;;;;;;11.63;1.80;;;;;;;21.15;56.34;103181.13;6276278;22;20008;-75
2022/07/08 10:15:29;;;;;;;7.93;1.75;;;;;;;21.23;56.80;103186.53;6275180;22;20003;-76
2022/07/08 10:17:57;;;;;;;7.00;1.60;;;;;;;21.35;56.74;103186.81;6276238;22;20086;-75
2022/07/08 10:20:25;;;;;;;8.98;2.33;;;;;;;21.35;54.21;103189.44;6277475;22;20007;-76
2022/07/08 10:22:56;;;;;;;6.78;1.35;;;;;;;21.36;53.66;103188.59;6279863;22;20011;-76
2022/07/08 10:25:23;;;;;;;4.70;1.52;;;;;;;21.49;55.80;103181.88;6280379;22;20071;-76
2022/07/08 10:27:49;;;;;;;5.97;1.30;;;;;;;21.62;56.53;103186.50;6279201;22;20016;-76
2022/07/08 10:30:20;;;;;;;4.93;1.25;;;;;;;21.67;56.39;103186.59;6283054;22;20347;-76
2022/07/08 10:32:49;;;;;;;5.10;1.35;;;;;;;21.76;54.82;103191.09;6310627;22;20003;-72
2022/07/08 10:35:19;;;;;;;5.55;1.35;;;;;;;21.79;54.71;103184.19;6308765;22;19999;-76
2022/07/08 10:37:56;;;;;;;8.43;1.42;;;;;;;21.87;54.84;103179.97;6310978;22;20052;-75
2022/07/08 10:40:40;;;;;;;8.77;1.60;;;;;;;21.95;54.72;103185.31;6308602;22;20599;-74
2022/07/08 10:43:18;;;;;;;8.15;1.50;;;;;;;22.01;55.43;103187.19;6281938;22;19999;-75
2022/07/08 10:46:00;;;;;;;8.60;2.00;;;;;;;21.98;54.44;103181.91;6309026;22;20003;-76
2022/07/08 10:48:46;;;;;;;7.20;1.35;;;;;;;21.92;53.79;103180.06;6308743;22;19999;-77
2022/07/08 10:51:17;;;;;;;6.00;1.20;;;;;;;21.94;54.38;103181.84;6308287;22;20395;-75
2022/07/08 10:53:53;;;;;;;7.90;1.55;;;;;;;21.98;54.82;103176.66;6306703;22;20067;-75
2022/07/08 10:56:53;;;;;;;7.10;1.63;;;;;;;22.00;54.69;103174.94;6283576;22;20434;-76
2022/07/08 10:59:20;;;;;;;8.73;1.85;;;;;;;22.06;54.32;103169.81;6306509;22;19999;-76
2022/07/08 11:01:58;;;;;;;6.78;1.40;;;;;;;22.09;54.84;103168.16;6308830;22;20031;-74
2022/07/08 11:04:42;;;;;;;6.88;1.35;;;;;;;22.15;54.58;103170.00;6309892;22;20034;-76
2022/07/08 11:07:29;;;;;;;6.10;1.90;;;;;;;22.18;54.60;103170.03;6310452;22;19999;-75
2022/07/08 11:09:57;;;;;;;8.82;1.50;;;;;;;22.19;53.40;103174.44;6308824;22;20022;-77
2022/07/08 11:12:50;;;;;;;6.18;1.27;;;;;;;22.25;53.26;103171.03;6310693;22;20003;-77
2022/07/08 11:15:17;;;;;;;9.80;1.40;;;;;;;22.31;53.37;103171.13;6303068;22;20027;-76
2022/07/08 11:17:45;;;;;;;4.32;1.40;;;;;;;22.36;54.22;103170.34;6309011;22;20414;-75
2022/07/08 11:20:15;;;;;;;5.65;1.48;;;;;;;22.51;53.56;103171.41;6308568;22;20003;-76
2022/07/08 11:22:42;;;;;;;5.18;1.45;;;;;;;22.52;52.04;103165.34;6308368;22;20013;-76
2022/07/08 11:25:15;;;;;;;4.25;1.17;;;;;;;22.56;53.12;103159.25;6307408;22;20007;-77
2022/07/08 11:27:41;;;;;;;6.75;1.70;;;;;;;22.60;52.13;103174.19;6308890;22;19999;-75